Time;durP1;ratioP1;P1;durP2;ratioP2;P2;SDS_P1;SDS_P2;PMS_P1;PMS_P2;Temp;Humidity;BMP_temperature;BMP_pressure;BME280_temperature;BME280_humidity;BME280_pressure;Samples;Min_cycle;Max_cycle;Signal;HPM_P1;HPM_P2
2022/10/04 00:02:19;;;;;;;0.50;0.40;;;12.00;99.90;;;;;;5111907;28;20491;-76
2022/10/04 00:04:51;;;;;;;0.50;0.40;;;11.90;99.90;;;;;;5111960;28;20429;-76
2022/10/04 00:07:22;;;;;;;0.50;0.40;;;12.00;99.90;;;;;;5112439;28;20855;-78
2022/10/04 00:09:52;;;;;;;0.50;0.40;;;12.00;99.90;;;;;;5112236;28;20877;-74
2022/10/04 00:12:22;;;;;;;0.50;0.40;;;12.00;99.90;;;;;;5111505;28;20811;-76
2022/10/04 00:14:51;;;;;;;0.50;0.40;;;12.00;99.90;;;;;;5107559;28;20431;-76
2022/10/04 00:17:25;;;;;;;0.50;0.40;;;12.00;99.90;;;;;;5091137;28;20555;-76
2022/10/04 00:19:54;;;;;;;0.50;0.50;;;12.00;99.90;;;;;;5094793;28;20478;-75
2022/10/04 00:22:23;;;;;;;0.50;0.40;;;12.00;99.90;;;;;;5095349;28;20435;-76
2022/10/04 00:25:19;;;;;;;0.50;0.40;;;12.10;99.90;;;;;;5095051;28;20966;-76
2022/10/04 00:28:28;;;;;;;0.50;0.40;;;12.10;99.90;;;;;;5095462;28;20455;-73
2022/10/04 00:31:09;;;;;;;0.50;0.40;;;12.00;99.90;;;;;;5095439;28;20443;-76
2022/10/04 00:33:40;;;;;;;0.50;0.40;;;11.90;99.90;;;;;;5095069;28;20429;-76
2022/10/04 00:36:47;;;;;;;0.50;0.40;;;11.90;99.90;;;;;;5094810;28;20478;-76
2022/10/04 00:39:39;;;;;;;0.50;0.40;;;11.80;99.90;;;;;;5095375;28;20478;-76
2022/10/04 00:42:34;;;;;;;0.50;0.50;;;11.80;99.90;;;;;;5095612;28;20738;-76
2022/10/04 00:45:07;;;;;;;0.50;0.40;;;11.70;99.90;;;;;;5094481;28;20434;-75
2022/10/04 00:47:58;;;;;;;0.50;0.40;;;11.70;99.90;;;;;;5095526;28;20500;-76
2022/10/04 00:50:31;;;;;;;0.50;0.40;;;11.70;99.90;;;;;;5095043;28;20876;-76
2022/10/04 00:53:00;;;;;;;0.50;0.40;;;11.70;99.90;;;;;;5095381;28;20438;-76
2022/10/04 00:55:33;;;;;;;0.50;0.40;;;11.60;99.90;;;;;;5094498;28;20952;-76
2022/10/04 00:58:06;;;;;;;0.50;0.50;;;11.70;99.90;;;;;;5094398;28;20471;-76
2022/10/04 01:00:35;;;;;;;0.50;0.40;;;11.70;99.90;;;;;;5094360;28;20466;-76
2022/10/04 01:03:07;;;;;;;0.50;0.40;;;11.70;99.90;;;;;;5094383;28;20194;-76
2022/10/04 01:05:39;;;;;;;0.50;0.40;;;11.60;99.90;;;;;;5094007;28;20441;-76
2022/10/04 01:08:10;;;;;;;0.50;0.40;;;11.60;99.90;;;;;;5094874;28;20455;-76
2022/10/04 01:10:42;;;;;;;0.50;0.40;;;11.50;99.90;;;;;;5094612;28;20192;-76
2022/10/04 01:13:13;;;;;;;0.50;0.40;;;11.50;99.90;;;;;;5094626;28;20185;-76
2022/10/04 01:15:45;;;;;;;0.50;0.40;;;11.50;99.90;;;;;;5094050;28;20184;-76
2022/10/04 01:18:15;;;;;;;0.50;0.40;;;11.60;99.90;;;;;;5094584;28;20459;-76
2022/10/04 01:20:54;;;;;;;0.50;0.40;;;11.50;99.90;;;;;;5094564;28;20193;-76
2022/10/04 01:23:42;;;;;;;0.60;0.60;;;11.50;99.90;;;;;;5094534;28;20412;-76
2022/10/04 01:26:38;;;;;;;0.50;0.40;;;11.50;99.90;;;;;;5094049;28;20451;-76
2022/10/04 01:29:11;;;;;;;0.50;0.40;;;11.40;99.90;;;;;;5094519;28;20430;-76
2022/10/04 01:31:41;;;;;;;0.50;0.40;;;11.50;99.90;;;;;;5092956;28;20442;-76
2022/10/04 01:34:08;;;;;;;0.50;0.40;;;11.50;99.90;;;;;;5094133;28;20808;-76
2022/10/04 01:36:36;;;;;;;0.50;0.40;;;11.40;99.90;;;;;;5093971;28;20225;-76
2022/10/04 01:39:05;;;;;;;0.73;0.73;;;11.40;99.90;;;;;;5093788;28;20231;-76
2022/10/04 01:41:43;;;;;;;3.73;1.20;;;11.40;99.90;;;;;;5093773;28;20440;-76
2022/10/04 01:44:16;;;;;;;0.50;0.40;;;11.40;99.90;;;;;;5093888;28;20510;-76
2022/10/04 01:46:44;;;;;;;0.50;0.40;;;11.50;99.90;;;;;;5093977;28;20224;-76
2022/10/04 01:49:16;;;;;;;0.50;0.40;;;11.40;99.90;;;;;;5093627;28;20224;-76
2022/10/04 01:51:48;;;;;;;1.73;1.63;;;11.50;99.90;;;;;;5093627;28;20197;-76
2022/10/04 01:54:20;;;;;;;0.60;0.60;;;11.50;99.90;;;;;;5093623;28;20462;-76
2022/10/04 01:56:51;;;;;;;0.77;0.60;;;11.40;99.90;;;;;;5093689;28;20465;-75
2022/10/04 01:59:23;;;;;;;0.50;0.40;;;11.50;99.90;;;;;;5093720;28;20478;-76
2022/10/04 02:01:56;;;;;;;0.50;0.40;;;11.50;99.90;;;;;;5094023;28;20173;-76
2022/10/04 02:04:27;;;;;;;0.50;0.40;;;11.40;99.90;;;;;;5093523;28;20181;-75
2022/10/04 02:06:58;;;;;;;0.50;0.40;;;11.40;99.90;;;;;;5093331;28;20524;-75
2022/10/04 02:09:29;;;;;;;0.50;0.40;;;11.40;99.90;;;;;;5093654;28;20189;-76
2022/10/04 02:11:58;;;;;;;0.90;0.88;;;11.40;99.90;;;;;;5093865;28;20618;-76
2022/10/04 02:14:28;;;;;;;0.50;0.40;;;11.40;99.90;;;;;;5093342;28;20612;-76
2022/10/04 02:16:55;;;;;;;0.50;0.40;;;11.40;99.90;;;;;;5093022;28;20968;-76
2022/10/04 02:19:26;;;;;;;0.50;0.40;;;11.40;99.90;;;;;;5092904;28;20209;-76
2022/10/04 02:21:54;;;;;;;0.50;0.40;;;11.40;99.90;;;;;;5092990;28;20193;-73
2022/10/04 02:24:21;;;;;;;0.50;0.47;;;11.40;99.90;;;;;;5093225;28;20243;-76
2022/10/04 02:26:53;;;;;;;0.50;0.50;;;11.40;99.90;;;;;;5092767;28;20219;-76
2022/10/04 02:29:21;;;;;;;0.50;0.40;;;11.40;99.90;;;;;;5092807;28;20681;-76
2022/10/04 02:34:35;;;;;;;0.50;0.40;;;11.40;99.90;;;;;;5092778;28;20173;-75
2022/10/04 02:37:03;;;;;;;0.70;0.70;;;11.50;99.90;;;;;;5092722;28;20315;-75
2022/10/04 02:39:37;;;;;;;0.50;0.40;;;11.50;99.90;;;;;;5092883;28;20479;-75
2022/10/04 02:42:12;;;;;;;0.50;0.40;;;11.50;99.90;;;;;;5091736;28;21154;-75
2022/10/04 02:44:43;;;;;;;0.50;0.40;;;11.50;99.90;;;;;;5092440;28;20202;-76
2022/10/04 02:47:15;;;;;;;0.50;0.40;;;11.60;99.90;;;;;;5092766;28;20226;-75
2022/10/04 02:49:46;;;;;;;0.50;0.40;;;11.60;99.90;;;;;;5092583;28;20182;-76
2022/10/04 02:52:20;;;;;;;0.50;0.40;;;11.60;99.90;;;;;;5092637;28;20220;-76
2022/10/04 02:54:52;;;;;;;1.15;1.05;;;11.60;99.90;;;;;;5092079;28;20287;-76
2022/10/04 02:57:22;;;;;;;0.50;0.40;;;11.50;99.90;;;;;;5092595;28;20590;-76
2022/10/04 02:59:50;;;;;;;1.58;1.48;;;11.40;99.90;;;;;;5092255;28;20212;-74
2022/10/04 03:02:24;;;;;;;0.50;0.50;;;11.40;99.90;;;;;;5092154;28;20221;-75
2022/10/04 03:04:54;;;;;;;2.00;1.13;;;11.40;99.90;;;;;;5091866;28;20185;-75
2022/10/04 03:07:22;;;;;;;1.80;0.63;;;11.30;99.90;;;;;;5092149;28;20541;-75
2022/10/04 03:09:49;;;;;;;0.50;0.50;;;11.30;99.90;;;;;;5092052;28;20193;-75
2022/10/04 03:12:16;;;;;;;0.50;0.40;;;11.20;99.90;;;;;;5092479;28;20196;-75
2022/10/04 03:14:45;;;;;;;1.27;1.17;;;11.20;99.90;;;;;;5091464;28;20203;-75
2022/10/04 03:17:15;;;;;;;0.93;0.93;;;11.20;99.90;;;;;;5092040;28;20217;-76
2022/10/04 03:19:43;;;;;;;0.98;0.98;;;11.20;99.90;;;;;;5092241;28;20238;-76
2022/10/04 03:22:12;;;;;;;0.50;0.40;;;11.20;99.90;;;;;;5092256;28;20200;-75
2022/10/04 03:24:45;;;;;;;0.80;0.70;;;11.20;99.90;;;;;;5091311;28;20215;-75
2022/10/04 03:27:15;;;;;;;0.70;0.68;;;11.20;99.90;;;;;;5092085;28;20306;-75
2022/10/04 03:29:44;;;;;;;0.50;0.40;;;11.20;99.90;;;;;;5092068;28;20277;-76
2022/10/04 03:32:15;;;;;;;0.60;0.55;;;11.20;99.90;;;;;;5091779;28;20196;-76
2022/10/04 03:34:50;;;;;;;1.20;1.17;;;11.20;99.90;;;;;;5091813;28;20200;-76
2022/10/04 03:37:20;;;;;;;0.82;0.82;;;11.20;99.90;;;;;;5091387;28;20231;-76
2022/10/04 03:39:51;;;;;;;0.60;0.60;;;11.20;99.90;;;;;;5092125;28;20602;-76
2022/10/04 03:42:20;;;;;;;1.35;0.82;;;11.20;99.90;;;;;;5092159;28;20275;-76
2022/10/04 03:44:51;;;;;;;0.50;0.40;;;11.10;99.90;;;;;;5091839;28;20206;-76
2022/10/04 03:47:23;;;;;;;0.50;0.40;;;11.00;99.90;;;;;;5091800;28;20222;-75
2022/10/04 03:49:53;;;;;;;0.50;0.40;;;11.00;99.90;;;;;;5091239;28;20196;-75
2022/10/04 03:52:24;;;;;;;0.80;0.77;;;11.00;99.90;;;;;;5092048;28;20200;-76
2022/10/04 03:54:53;;;;;;;1.17;0.90;;;11.00;99.90;;;;;;5090907;28;20201;-75
2022/10/04 03:57:20;;;;;;;0.50;0.40;;;11.00;99.90;;;;;;5091822;28;20217;-76
2022/10/04 03:59:49;;;;;;;3.25;1.40;;;10.90;99.90;;;;;;5091331;28;20223;-76
2022/10/04 04:02:22;;;;;;;0.50;0.40;;;10.90;99.90;;;;;;5091757;28;20200;-76
2022/10/04 04:04:55;;;;;;;0.50;0.50;;;10.90;99.90;;;;;;5090821;28;20197;-75
2022/10/04 04:07:28;;;;;;;0.50;0.50;;;10.80;99.90;;;;;;5091423;28;20216;-75
2022/10/04 04:10:04;;;;;;;1.08;1.08;;;10.70;99.90;;;;;;5092099;28;20185;-75
2022/10/04 04:12:38;;;;;;;0.60;0.60;;;10.70;99.90;;;;;;5091550;28;20527;-75
2022/10/04 04:15:09;;;;;;;0.82;0.82;;;10.70;99.90;;;;;;5091324;28;20179;-76
2022/10/04 04:17:41;;;;;;;0.57;0.57;;;10.60;99.90;;;;;;5089172;28;20226;-75
2022/10/04 04:20:18;;;;;;;0.50;0.40;;;10.70;99.90;;;;;;5085237;28;20245;-76
2022/10/04 04:22:59;;;;;;;2.35;1.63;;;10.70;99.90;;;;;;5099414;28;20660;-74
2022/10/04 04:25:28;;;;;;;1.05;1.05;;;10.70;99.90;;;;;;5090876;28;20188;-75
2022/10/04 04:28:03;;;;;;;0.50;0.40;;;10.70;99.90;;;;;;5091332;28;20224;-74
2022/10/04 04:30:35;;;;;;;0.50;0.40;;;10.80;99.90;;;;;;5091463;28;20256;-75
2022/10/04 04:33:11;;;;;;;0.50;0.40;;;10.80;99.90;;;;;;5090714;28;20183;-75
2022/10/04 04:35:38;;;;;;;0.60;0.50;;;10.80;99.90;;;;;;5082637;28;20284;-76
2022/10/04 04:38:14;;;;;;;0.57;0.57;;;10.80;99.90;;;;;;5084108;28;20236;-76
2022/10/04 04:40:41;;;;;;;1.27;0.70;;;10.80;99.90;;;;;;5091556;28;20280;-76
2022/10/04 04:43:16;;;;;;;1.67;1.25;;;10.80;99.90;;;;;;5090928;28;20210;-76
2022/10/04 04:45:47;;;;;;;0.50;0.50;;;10.80;99.90;;;;;;5090800;28;20217;-76
2022/10/04 04:48:17;;;;;;;1.38;1.15;;;10.70;99.90;;;;;;5091160;28;20184;-76
2022/10/04 04:50:49;;;;;;;0.63;0.63;;;10.70;99.90;;;;;;5080829;28;20285;-76
2022/10/04 04:53:21;;;;;;;1.90;1.13;;;10.70;99.90;;;;;;5070083;28;20203;-76
2022/10/04 04:55:51;;;;;;;0.50;0.40;;;10.70;99.90;;;;;;5070377;28;20228;-76
2022/10/04 04:58:20;;;;;;;2.42;1.83;;;10.60;99.90;;;;;;5070583;28;20222;-76
2022/10/04 05:00:55;;;;;;;2.35;2.25;;;10.60;99.90;;;;;;5070754;28;20236;-76
2022/10/04 05:03:22;;;;;;;0.60;0.50;;;10.50;99.90;;;;;;5070157;28;20208;-76
2022/10/04 05:05:50;;;;;;;0.50;0.40;;;10.50;99.90;;;;;;5072250;28;20604;-76
2022/10/04 05:08:21;;;;;;;1.02;0.93;;;10.40;99.90;;;;;;5074038;28;20208;-76
2022/10/04 05:10:54;;;;;;;0.90;0.60;;;10.40;99.90;;;;;;5073825;28;20239;-76
2022/10/04 05:13:22;;;;;;;0.50;0.40;;;10.40;99.90;;;;;;5074516;28;20613;-76
2022/10/04 05:15:54;;;;;;;0.50;0.40;;;10.30;99.90;;;;;;5073868;28;20565;-76
2022/10/04 05:18:32;;;;;;;0.50;0.40;;;10.30;99.90;;;;;;5074239;28;20246;-76
2022/10/04 05:21:05;;;;;;;0.60;0.55;;;10.30;99.90;;;;;;5073756;28;20192;-75
2022/10/04 05:23:33;;;;;;;0.65;0.63;;;10.30;99.90;;;;;;5074180;28;20219;-75
2022/10/04 05:26:03;;;;;;;0.50;0.40;;;10.30;99.90;;;;;;5073602;28;20193;-75
2022/10/04 05:28:31;;;;;;;0.95;0.95;;;10.30;99.90;;;;;;5074214;28;20296;-75
2022/10/04 05:31:21;;;;;;;1.60;0.70;;;10.30;99.90;;;;;;5074110;28;20205;-75
2022/10/04 05:33:51;;;;;;;1.45;1.35;;;10.30;99.90;;;;;;5073556;28;20225;-75
2022/10/04 05:36:37;;;;;;;0.50;0.50;;;10.30;99.90;;;;;;5073419;28;20229;-76
2022/10/04 05:39:12;;;;;;;1.70;1.13;;;10.20;99.90;;;;;;5073427;28;20307;-76
2022/10/04 05:41:47;;;;;;;0.50;0.40;;;10.20;99.90;;;;;;5073749;28;20195;-76
2022/10/04 05:44:26;;;;;;;0.52;0.52;;;10.20;99.90;;;;;;5073274;28;20199;-76
2022/10/04 05:46:56;;;;;;;0.60;0.50;;;10.20;99.90;;;;;;5073866;28;20222;-76
2022/10/04 05:49:25;;;;;;;0.50;0.40;;;10.20;99.90;;;;;;5073557;28;20178;-76
2022/10/04 05:51:55;;;;;;;8.02;2.25;;;10.10;99.90;;;;;;5073207;28;20693;-75
2022/10/04 05:54:24;;;;;;;0.50;0.40;;;10.10;99.90;;;;;;5073472;28;20192;-76
2022/10/04 05:57:26;;;;;;;0.50;0.40;;;10.10;99.90;;;;;;5073140;28;20218;-75
2022/10/04 06:00:08;;;;;;;1.13;1.13;;;10.20;99.90;;;;;;5073206;28;20222;-74
2022/10/04 06:02:59;;;;;;;0.50;0.40;;;10.20;99.90;;;;;;5072479;28;20283;-74
2022/10/04 06:05:36;;;;;;;1.30;0.90;;;10.20;99.90;;;;;;5072894;28;20205;-76
2022/10/04 06:08:09;;;;;;;0.50;0.40;;;10.30;99.90;;;;;;5072627;28;20314;-77
2022/10/04 06:11:02;;;;;;;0.50;0.40;;;10.30;99.90;;;;;;5073004;28;20173;-73
2022/10/04 06:14:02;;;;;;;0.70;0.63;;;10.40;99.90;;;;;;5072875;28;20268;-76
2022/10/04 06:16:43;;;;;;;0.50;0.40;;;10.40;99.90;;;;;;5072416;28;20231;-76
2022/10/04 06:19:32;;;;;;;0.50;0.40;;;10.50;99.90;;;;;;5072860;28;20568;-76
2022/10/04 06:22:15;;;;;;;0.50;0.40;;;10.50;99.90;;;;;;5072937;28;20210;-76
2022/10/04 06:24:46;;;;;;;0.50;0.40;;;10.70;99.90;;;;;;5074125;28;20215;-76
2022/10/04 06:27:17;;;;;;;0.50;0.40;;;10.70;99.90;;;;;;5072634;28;20213;-76
2022/10/04 06:29:49;;;;;;;0.50;0.40;;;10.80;99.90;;;;;;5072387;28;20198;-76
2022/10/04 06:32:53;;;;;;;0.50;0.40;;;10.80;99.90;;;;;;5072604;28;20178;-76
2022/10/04 06:35:50;;;;;;;0.50;0.40;;;11.00;99.90;;;;;;5072316;28;20280;-76
2022/10/04 06:38:43;;;;;;;1.92;1.83;;;11.10;99.90;;;;;;5072659;28;20635;-77
2022/10/04 06:41:27;;;;;;;0.50;0.40;;;11.10;99.90;;;;;;5072533;28;20205;-77
2022/10/04 06:44:13;;;;;;;0.50;0.40;;;11.20;99.90;;;;;;5071632;28;20607;-74
2022/10/04 06:46:47;;;;;;;0.50;0.40;;;11.30;99.90;;;;;;5072348;28;20227;-76
2022/10/04 06:49:40;;;;;;;0.50;0.40;;;11.40;99.90;;;;;;5072775;28;20177;-76
2022/10/04 06:52:29;;;;;;;0.50;0.40;;;11.50;99.90;;;;;;5071666;28;20198;-77
2022/10/04 06:55:37;;;;;;;0.50;0.40;;;11.60;99.90;;;;;;5072185;28;20563;-77
2022/10/04 06:58:28;;;;;;;0.50;0.40;;;11.70;99.90;;;;;;5071885;28;20218;-77
2022/10/04 07:01:02;;;;;;;0.82;0.82;;;11.90;99.90;;;;;;5071551;28;20249;-75
2022/10/04 07:03:37;;;;;;;0.60;0.50;;;12.00;99.90;;;;;;5071703;28;20178;-76
2022/10/04 07:06:10;;;;;;;0.50;0.40;;;12.10;99.90;;;;;;5071644;28;20182;-76
2022/10/04 07:08:46;;;;;;;0.50;0.40;;;12.20;99.90;;;;;;5071857;28;20205;-77
2022/10/04 07:11:17;;;;;;;1.07;1.07;;;12.30;99.90;;;;;;5072107;28;20588;-76
2022/10/04 07:13:51;;;;;;;0.50;0.40;;;12.50;99.90;;;;;;5072026;28;20424;-76
2022/10/04 07:16:31;;;;;;;0.50;0.40;;;12.60;99.90;;;;;;5071886;28;20217;-77
2022/10/04 07:19:08;;;;;;;0.50;0.40;;;12.80;99.90;;;;;;5071571;28;20530;-77
2022/10/04 07:21:42;;;;;;;1.33;1.02;;;12.90;99.90;;;;;;5071580;28;20809;-77
2022/10/04 07:24:18;;;;;;;0.50;0.40;;;13.00;99.90;;;;;;5071646;28;20244;-77
2022/10/04 07:26:48;;;;;;;0.50;0.40;;;13.20;99.90;;;;;;5071686;28;20795;-76
2022/10/04 07:29:21;;;;;;;3.13;1.13;;;13.20;99.90;;;;;;5070663;28;20444;-76
2022/10/04 07:31:52;;;;;;;0.50;0.40;;;13.30;99.90;;;;;;5071429;28;20432;-76
2022/10/04 07:34:26;;;;;;;0.50;0.40;;;13.30;99.90;;;;;;5071540;28;20425;-75
2022/10/04 07:36:56;;;;;;;0.50;0.40;;;13.40;99.90;;;;;;5071552;28;20464;-75
2022/10/04 07:39:28;;;;;;;0.90;0.73;;;13.60;99.90;;;;;;5072173;28;20550;-78
2022/10/04 07:41:58;;;;;;;0.50;0.40;;;13.60;99.90;;;;;;5071539;28;20447;-75
2022/10/04 07:44:35;;;;;;;0.70;0.70;;;13.60;99.90;;;;;;5070862;28;20479;-75
2022/10/04 07:47:09;;;;;;;0.50;0.40;;;13.60;99.90;;;;;;5071387;28;20816;-75
2022/10/04 07:49:40;;;;;;;0.50;0.40;;;13.80;99.90;;;;;;5071481;28;20428;-74
2022/10/04 07:52:27;;;;;;;0.50;0.30;;;13.90;99.90;;;;;;5071081;28;20949;-77
2022/10/04 07:55:05;;;;;;;0.50;0.40;;;13.90;99.90;;;;;;5071174;28;20794;-75
2022/10/04 07:57:43;;;;;;;0.50;0.40;;;13.90;99.90;;;;;;5071331;28;20535;-76
2022/10/04 08:00:16;;;;;;;0.50;0.43;;;14.00;99.90;;;;;;5070784;28;20667;-75
2022/10/04 08:02:54;;;;;;;0.50;0.37;;;14.10;99.90;;;;;;5070360;28;20511;-75
2022/10/04 08:05:28;;;;;;;0.50;0.40;;;14.30;99.90;;;;;;5071153;28;20894;-75
2022/10/04 08:08:21;;;;;;;0.50;0.40;;;14.70;99.90;;;;;;5071187;28;20476;-76
2022/10/04 08:11:03;;;;;;;0.50;0.40;;;15.30;99.90;;;;;;5071478;28;20515;-74
2022/10/04 08:13:40;;;;;;;0.50;0.40;;;15.60;99.90;;;;;;5070954;28;20527;-77
2022/10/04 08:16:22;;;;;;;0.50;0.40;;;15.90;99.90;;;;;;5071043;28;20467;-76
2022/10/04 08:19:03;;;;;;;0.70;0.57;;;16.30;99.90;;;;;;5070953;28;20478;-76
2022/10/04 08:21:40;;;;;;;0.50;0.40;;;16.90;99.90;;;;;;5070520;28;20476;-75
2022/10/04 08:24:18;;;;;;;0.50;0.40;;;17.70;99.90;;;;;;5070670;28;20444;-75
2022/10/04 08:27:15;;;;;;;0.50;0.40;;;18.20;99.90;;;;;;5071412;28;20459;-78
2022/10/04 08:30:04;;;;;;;0.50;0.40;;;18.40;99.90;;;;;;5070846;28;20417;-75
2022/10/04 08:32:44;;;;;;;0.50;0.30;;;19.10;99.90;;;;;;5070803;28;20451;-76
2022/10/04 08:35:35;;;;;;;0.50;0.30;;;19.70;99.90;;;;;;5070218;28;20444;-76
2022/10/04 08:38:15;;;;;;;2.20;1.07;;;20.50;99.90;;;;;;5070196;28;20567;-75
2022/10/04 08:41:52;;;;;;;0.60;0.50;;;22.30;99.90;;;;;;5072442;28;20472;-76
2022/10/04 08:44:56;;;;;;;0.60;0.47;;;24.20;95.20;;;;;;5073729;28;20430;-78
2022/10/04 08:48:17;;;;;;;0.50;0.40;;;24.90;84.20;;;;;;5051423;28;20452;-76
2022/10/04 08:51:37;;;;;;;0.50;0.30;;;25.40;82.90;;;;;;5030271;28;20493;-76
2022/10/04 08:54:34;;;;;;;0.50;0.30;;;26.30;78.00;;;;;;5073702;28;20444;-76
2022/10/04 08:57:26;;;;;;;0.50;0.40;;;28.20;78.30;;;;;;5074112;28;20529;-76
2022/10/04 09:00:14;;;;;;;0.50;0.30;;;29.60;67.90;;;;;;5073824;28;20472;-74
2022/10/04 09:03:19;;;;;;;0.50;0.30;;;29.70;62.20;;;;;;5073832;28;20425;-77
2022/10/04 09:05:56;;;;;;;0.50;0.30;;;28.40;61.90;;;;;;5073730;28;20428;-77
2022/10/04 09:09:04;;;;;;;0.50;0.30;;;26.60;66.30;;;;;;5073973;28;20809;-77
2022/10/04 09:11:49;;;;;;;0.77;0.73;;;25.30;69.90;;;;;;5074086;28;20984;-76
2022/10/04 09:14:56;;;;;;;0.60;0.40;;;25.10;71.10;;;;;;5073625;28;20909;-76
2022/10/04 09:17:36;;;;;;;0.50;0.40;;;24.90;70.70;;;;;;5011540;28;20458;-76
2022/10/04 09:20:20;;;;;;;0.50;0.30;;;25.50;71.70;;;;;;5068736;28;20484;-77
2022/10/04 09:22:56;;;;;;;0.50;0.30;;;27.00;70.50;;;;;;5074197;28;20455;-77
2022/10/04 09:25:39;;;;;;;0.60;0.50;;;27.80;66.30;;;;;;5073611;28;20474;-77
2022/10/04 09:28:34;;;;;;;0.50;0.40;;;28.00;62.70;;;;;;5073472;28;21018;-76
2022/10/04 09:31:43;;;;;;;0.50;0.30;;;26.90;63.20;;;;;;5072998;28;20555;-76
2022/10/04 09:34:32;;;;;;;0.50;0.30;;;25.70;69.20;;;;;;5040897;28;20456;-76
2022/10/04 09:37:19;;;;;;;0.50;0.30;;;26.30;66.80;;;;;;5073467;28;20468;-76
2022/10/04 09:40:34;;;;;;;0.60;0.50;;;25.80;65.50;;;;;;5073178;28;20417;-76
2022/10/04 09:43:18;;;;;;;0.50;0.30;;;25.90;67.00;;;;;;5073250;28;20431;-75
2022/10/04 09:46:06;;;;;;;0.50;0.30;;;26.40;64.00;;;;;;5073434;28;20433;-76
2022/10/04 09:48:39;;;;;;;0.50;0.40;;;26.10;66.60;;;;;;5073215;28;20932;-77
2022/10/04 09:51:31;;;;;;;0.60;0.40;;;27.00;64.80;;;;;;5074834;28;20938;-77
2022/10/04 09:54:31;;;;;;;0.60;0.60;;;26.60;63.50;;;;;;5073150;28;20873;-77
2022/10/04 09:57:13;;;;;;;1.43;0.80;;;25.30;67.50;;;;;;5061799;28;20894;-76
2022/10/04 10:00:09;;;;;;;0.60;0.50;;;25.20;67.20;;;;;;5073137;28;20443;-76
2022/10/04 10:03:14;;;;;;;0.60;0.40;;;23.90;69.20;;;;;;5073254;28;20493;-75
2022/10/04 10:06:14;;;;;;;0.50;0.40;;;23.20;73.30;;;;;;5072603;28;20941;-77
2022/10/04 10:08:57;;;;;;;0.50;0.40;;;24.10;73.80;;;;;;5073432;28;20427;-78
2022/10/04 10:15:00;;;;;;;0.50;0.30;;;25.80;69.50;;;;;;5072094;28;20415;-76
2022/10/04 10:17:36;;;;;;;0.50;0.37;;;26.40;66.20;;;;;;5073069;28;20799;-76
2022/10/04 10:20:34;;;;;;;0.50;0.30;;;26.30;67.40;;;;;;5072932;28;20561;-76
2022/10/04 10:23:25;;;;;;;0.60;0.50;;;26.80;69.40;;;;;;5070170;28;20677;-76
2022/10/04 10:26:12;;;;;;;0.60;0.40;;;26.90;66.00;;;;;;5043437;28;20601;-76
2022/10/04 10:29:07;;;;;;;0.50;0.30;;;26.80;64.70;;;;;;5073648;28;20511;-76
2022/10/04 10:31:55;;;;;;;0.50;0.30;;;27.10;65.60;;;;;;5072650;28;20440;-77
2022/10/04 10:34:51;;;;;;;0.60;0.50;;;27.30;65.70;;;;;;5072539;28;20426;-77
2022/10/04 10:37:28;;;;;;;0.50;0.40;;;27.10;66.50;;;;;;5072453;28;20491;-75
2022/10/04 10:40:16;;;;;;;2.10;0.97;;;26.90;64.70;;;;;;5072160;28;20497;-74
2022/10/04 10:43:07;;;;;;;1.83;1.20;;;26.40;65.40;;;;;;5072459;28;20428;-77
2022/10/04 10:46:14;;;;;;;5.90;2.07;;;25.20;67.30;;;;;;5072057;28;20429;-77
2022/10/04 10:49:11;;;;;;;4.77;0.80;;;24.80;68.80;;;;;;5072531;28;20529;-76
2022/10/04 10:52:12;;;;;;;0.50;0.40;;;24.20;70.60;;;;;;5059405;28;20801;-76
2022/10/04 10:54:58;;;;;;;0.80;0.57;;;23.50;72.70;;;;;;5071725;28;20530;-77
2022/10/04 10:57:47;;;;;;;0.90;0.50;;;23.50;73.10;;;;;;5073223;28;21042;-77
2022/10/04 11:00:20;;;;;;;0.50;0.30;;;24.20;74.10;;;;;;5072061;28;20423;-78
2022/10/04 11:03:29;;;;;;;0.50;0.30;;;25.60;72.60;;;;;;5070522;28;20427;-77
2022/10/04 11:06:16;;;;;;;0.50;0.30;;;25.90;68.90;;;;;;5071760;28;20531;-77
2022/10/04 11:09:21;;;;;;;0.50;0.30;;;26.30;68.50;;;;;;5071938;28;20536;-77
2022/10/04 11:12:18;;;;;;;0.50;0.40;;;25.80;68.30;;;;;;5072140;28;20424;-77
2022/10/04 11:15:04;;;;;;;0.50;0.30;;;26.20;67.00;;;;;;5071540;28;20797;-77
2022/10/04 11:18:07;;;;;;;0.60;0.40;;;25.60;67.50;;;;;;5071309;28;21036;-77
2022/10/04 11:21:08;;;;;;;0.93;0.83;;;25.20;68.60;;;;;;5071779;28;20467;-77
2022/10/04 11:24:12;;;;;;;4.00;1.13;;;24.60;68.50;;;;;;5071496;28;20955;-77
2022/10/04 11:27:04;;;;;;;1.13;1.03;;;24.00;71.00;;;;;;5071918;28;20462;-77
2022/10/04 11:29:54;;;;;;;0.60;0.50;;;23.50;72.00;;;;;;5071929;28;20427;-77
2022/10/04 11:32:56;;;;;;;0.50;0.40;;;23.40;74.40;;;;;;5071681;28;20770;-78
2022/10/04 11:35:45;;;;;;;6.13;4.47;;;23.30;73.10;;;;;;5071131;28;20535;-77
2022/10/04 11:38:28;;;;;;;3.90;0.63;;;23.70;72.80;;;;;;5071086;28;20456;-76
2022/10/04 11:41:13;;;;;;;0.70;0.60;;;24.50;72.30;;;;;;5071579;28;20462;-77
2022/10/04 11:44:13;;;;;;;0.80;0.70;;;24.40;71.70;;;;;;5071446;28;20439;-75
2022/10/04 11:46:46;;;;;;;1.00;0.90;;;24.60;71.70;;;;;;5068270;28;20541;-75
2022/10/04 11:49:43;;;;;;;0.70;0.70;;;24.70;70.20;;;;;;5071586;28;20447;-76
2022/10/04 11:52:36;;;;;;;0.60;0.50;;;24.60;70.90;;;;;;5071132;28;20413;-77
2022/10/04 11:55:43;;;;;;;0.53;0.40;;;24.40;70.70;;;;;;5068382;28;20451;-76
2022/10/04 11:58:16;;;;;;;0.50;0.30;;;23.90;71.60;;;;;;5071298;28;20466;-77
2022/10/04 12:01:32;;;;;;;0.70;0.57;;;23.10;72.20;;;;;;5072760;28;20467;-76
2022/10/04 12:04:33;;;;;;;1.07;0.50;;;23.00;73.00;;;;;;5035124;28;20450;-77
2022/10/04 12:07:25;;;;;;;0.60;0.50;;;23.10;74.00;;;;;;5071422;28;20488;-75
2022/10/04 12:10:00;;;;;;;0.50;0.30;;;23.00;73.80;;;;;;5071580;28;20435;-77
2022/10/04 12:12:46;;;;;;;0.97;0.40;;;23.10;74.80;;;;;;5070841;28;20446;-77
2022/10/04 12:15:38;;;;;;;1.00;0.90;;;24.00;73.60;;;;;;5072967;28;20452;-77
2022/10/04 12:18:46;;;;;;;2.37;1.00;;;24.50;72.80;;;;;;5075155;28;20456;-77
2022/10/04 12:21:27;;;;;;;0.97;0.67;;;25.10;69.70;;;;;;5059488;28;20996;-77
2022/10/04 12:24:14;;;;;;;0.50;0.30;;;25.60;70.40;;;;;;5074847;28;20435;-73
2022/10/04 12:27:27;;;;;;;0.80;0.53;;;25.90;68.40;;;;;;5075370;28;20817;-78
2022/10/04 12:30:29;;;;;;;0.50;0.30;;;26.30;67.10;;;;;;5075249;28;20448;-75
2022/10/04 12:33:14;;;;;;;0.50;0.30;;;26.70;65.00;;;;;;5074582;28;20530;-75
2022/10/04 12:35:58;;;;;;;0.50;0.30;;;26.00;67.20;;;;;;5074741;28;20452;-77
2022/10/04 12:38:48;;;;;;;0.50;0.30;;;26.30;68.30;;;;;;5074835;28;20412;-77
2022/10/04 12:41:30;;;;;;;0.60;0.50;;;26.90;65.00;;;;;;5074840;28;20554;-77
2022/10/04 12:44:07;;;;;;;0.50;0.30;;;27.40;62.90;;;;;;5073892;28;20436;-77
2022/10/04 12:46:43;;;;;;;0.90;0.50;;;26.60;63.50;;;;;;5075275;28;20964;-78
2022/10/04 12:49:20;;;;;;;0.60;0.50;;;25.10;66.40;;;;;;5075604;28;20457;-76
2022/10/04 12:51:58;;;;;;;0.50;0.40;;;24.50;66.10;;;;;;5074796;28;20422;-80
2022/10/04 12:54:38;;;;;;;0.50;0.30;;;24.30;67.20;;;;;;5074716;28;20941;-79
2022/10/04 12:57:23;;;;;;;0.83;0.80;;;24.30;68.80;;;;;;5074047;28;20538;-79
2022/10/04 13:00:02;;;;;;;0.50;0.30;;;25.10;69.80;;;;;;5074927;28;20480;-78
2022/10/04 13:02:47;;;;;;;0.87;0.87;;;25.80;70.80;;;;;;5075071;28;20874;-79
2022/10/04 13:05:23;;;;;;;0.70;0.40;;;26.00;66.00;;;;;;5075021;28;20442;-79
2022/10/04 13:08:06;;;;;;;0.50;0.30;;;26.00;69.40;;;;;;5075511;28;20530;-77
2022/10/04 13:10:47;;;;;;;0.50;0.30;;;26.00;67.30;;;;;;5074086;28;20435;-79
2022/10/04 13:13:44;;;;;;;0.50;0.30;;;25.00;68.60;;;;;;5074590;28;20435;-79
2022/10/04 13:16:26;;;;;;;0.60;0.40;;;24.70;70.80;;;;;;5074379;28;20462;-79
2022/10/04 13:19:00;;;;;;;0.50;0.40;;;25.20;71.20;;;;;;5075040;28;20412;-79
2022/10/04 13:21:56;;;;;;;0.50;0.30;;;25.30;71.80;;;;;;5074733;28;20472;-76
2022/10/04 13:24:28;;;;;;;2.03;1.73;;;25.70;70.60;;;;;;5074743;28;20941;-78
2022/10/04 13:27:02;;;;;;;0.60;0.50;;;25.80;65.70;;;;;;5073317;28;20965;-79
2022/10/04 13:29:36;;;;;;;0.50;0.40;;;25.00;67.00;;;;;;5074393;28;20439;-78
2022/10/04 13:32:10;;;;;;;1.93;1.83;;;24.60;72.30;;;;;;5074512;28;20444;-78
2022/10/04 13:34:45;;;;;;;0.93;0.67;;;24.20;68.50;;;;;;5074185;28;20508;-78
2022/10/04 13:37:32;;;;;;;0.50;0.30;;;24.20;70.30;;;;;;5074828;28;21007;-77
2022/10/04 13:40:34;;;;;;;0.50;0.30;;;24.50;71.10;;;;;;5074599;28;20431;-79
2022/10/04 13:43:17;;;;;;;0.50;0.30;;;25.10;69.50;;;;;;5074764;28;20475;-76
2022/10/04 13:45:59;;;;;;;4.97;0.97;;;25.70;68.10;;;;;;5074631;28;20523;-79
2022/10/04 13:48:35;;;;;;;1.17;0.93;;;26.10;65.00;;;;;;5075103;28;20441;-79
2022/10/04 13:51:25;;;;;;;0.97;0.83;;;25.30;66.90;;;;;;5074147;28;20964;-78
2022/10/04 13:57:16;;;;;;;0.60;0.50;;;24.50;67.20;;;;;;5073678;28;20516;-78
2022/10/04 13:59:48;;;;;;;0.50;0.40;;;25.20;69.20;;;;;;5073880;28;20424;-78
2022/10/04 14:02:48;;;;;;;0.50;0.30;;;25.30;66.00;;;;;;5073518;28;20460;-80
2022/10/04 14:05:48;;;;;;;0.50;0.30;;;25.00;67.20;;;;;;5072966;28;20443;-78
2022/10/04 14:08:54;;;;;;;0.50;0.40;;;24.90;67.30;;;;;;5073844;28;20427;-77